createdAt,value
2023-01-28T00:00:10.894Z,97129.00
2023-01-28T00:01:13.786Z,97134.94
2023-01-28T00:02:15.644Z,97131.69
2023-01-28T00:03:17.588Z,97131.81
2023-01-28T00:04:19.769Z,97136.03
2023-01-28T00:05:23.354Z,97140.38
2023-01-28T00:06:25.187Z,97134.69
2023-01-28T00:07:26.960Z,97136.69
2023-01-28T00:08:28.687Z,97134.13
2023-01-28T00:09:30.596Z,97137.66
2023-01-28T00:10:32.413Z,97136.69
2023-01-28T00:11:34.217Z,97132.66
2023-01-28T00:12:35.924Z,97138.03
2023-01-28T00:13:37.719Z,97140.47
2023-01-28T00:14:40.256Z,97135.34
2023-01-28T00:15:42.058Z,97138.34
2023-01-28T00:16:43.821Z,97136.97
2023-01-28T00:17:45.694Z,97132.53
2023-01-28T00:18:47.484Z,97135.91
2023-01-28T00:19:49.380Z,97135.09
2023-01-28T00:20:58.937Z,97139.25
2023-01-28T00:22:00.689Z,97135.34
2023-01-28T00:23:02.576Z,97139.13
2023-01-28T00:24:04.609Z,97137.66
2023-01-28T00:25:06.576Z,97135.09
2023-01-28T00:26:11.513Z,97134.97
2023-01-28T00:27:13.453Z,97135.63
2023-01-28T00:28:15.282Z,97134.00
2023-01-28T00:29:17.207Z,97138.19
2023-01-28T00:30:19.837Z,97145.75
2023-01-28T00:31:23.205Z,97140.59
2023-01-28T00:32:25.116Z,97139.00
2023-01-28T00:33:29.600Z,97143.06
2023-01-28T00:34:31.443Z,97139.56
2023-01-28T00:35:33.406Z,97140.06
2023-01-28T00:36:39.454Z,97141.72
2023-01-28T00:37:41.225Z,97138.34
2023-01-28T00:38:43.094Z,97139.41
2023-01-28T00:39:44.835Z,97136.97
2023-01-28T00:40:46.936Z,97138.72
2023-01-28T00:41:48.759Z,97141.16
2023-01-28T00:42:50.587Z,97145.38
2023-01-28T00:43:53.120Z,97137.91
2023-01-28T00:44:54.937Z,97136.31
2023-01-28T00:45:56.892Z,97136.81
2023-01-28T00:46:58.719Z,97140.22
2023-01-28T00:48:00.556Z,97136.97
2023-01-28T00:49:02.366Z,97129.13
2023-01-28T00:50:04.241Z,97133.31
2023-01-28T00:51:06.747Z,97137.66
2023-01-28T00:52:08.494Z,97139.25
2023-01-28T00:53:10.262Z,97144.41
2023-01-28T00:54:12.736Z,97140.34
2023-01-28T00:55:15.460Z,97130.22
2023-01-28T00:56:18.326Z,97136.16
2023-01-28T00:57:20.126Z,97142.50
2023-01-28T00:58:24.351Z,97131.56
2023-01-28T00:59:27.242Z,97137.38
2023-01-28T01:00:29.053Z,97134.66
2023-01-28T01:01:30.987Z,97136.56
2023-01-28T01:02:32.967Z,97134.78
2023-01-28T01:03:34.914Z,97134.78
2023-01-28T01:04:36.648Z,97140.75
2023-01-28T01:05:38.592Z,97133.06
2023-01-28T01:06:40.984Z,97134.97
2023-01-28T01:07:42.956Z,97141.97
2023-01-28T01:08:50.690Z,97138.44
2023-01-28T01:09:52.482Z,97126.81
2023-01-28T01:10:58.631Z,97139.66
2023-01-28T01:12:00.497Z,97138.59
2023-01-28T01:13:02.281Z,97140.34
2023-01-28T01:14:05.482Z,97144.41
2023-01-28T01:15:10.545Z,97146.16
2023-01-28T01:16:14.110Z,97141.81
2023-01-28T01:17:16.035Z,97137.53
2023-01-28T01:18:18.315Z,97139.13
2023-01-28T01:19:20.081Z,97141.69
2023-01-28T01:20:23.397Z,97138.19
2023-01-28T01:21:26.733Z,97139.13
2023-01-28T01:22:28.537Z,97138.19
2023-01-28T01:23:31.334Z,97142.38
2023-01-28T01:24:34.352Z,97139.81
2023-01-28T01:25:36.213Z,97143.34
2023-01-28T01:26:38.024Z,97139.81
2023-01-28T01:27:39.853Z,97144.13
2023-01-28T01:28:41.996Z,97148.19
2023-01-28T01:29:43.831Z,97151.56
2023-01-28T01:30:45.590Z,97146.28
2023-01-28T01:31:47.371Z,97145.38
2023-01-28T01:32:49.574Z,97144.41
2023-01-28T01:33:52.286Z,97145.06
2023-01-28T01:34:54.136Z,97150.34
2023-01-28T01:35:56.587Z,97142.63
2023-01-28T01:36:58.517Z,97148.59
2023-01-28T01:38:00.612Z,97148.44
2023-01-28T01:39:02.364Z,97145.75
2023-01-28T01:40:05.367Z,97145.06
2023-01-28T01:41:08.041Z,97153.59
2023-01-28T01:42:14.042Z,97144.94
2023-01-28T01:43:19.896Z,97157.91
2023-01-28T01:44:40.131Z,97154.69
2023-01-28T01:45:42.061Z,97158.47
2023-01-28T01:46:50.369Z,97147.50
2023-01-28T01:47:52.092Z,97153.44
2023-01-28T01:48:55.243Z,97155.22
2023-01-28T01:49:57.279Z,97150.06
2023-01-28T01:51:01.406Z,97146.72
2023-01-28T01:52:15.815Z,97150.38
2023-01-28T01:53:19.142Z,97150.06
2023-01-28T01:54:22.220Z,97145.63
2023-01-28T01:55:26.047Z,97146.28
2023-01-28T01:56:30.720Z,97140.34
2023-01-28T01:57:34.202Z,97147.94
2023-01-28T01:58:37.364Z,97156.56
2023-01-28T01:59:40.427Z,97157.38
2023-01-28T02:00:42.729Z,97146.16
2023-01-28T02:01:46.000Z,97157.53
2023-01-28T02:02:49.732Z,97152.53
2023-01-28T02:04:10.028Z,97151.44
2023-01-28T02:05:13.200Z,97146.28
2023-01-28T02:06:15.276Z,97149.66
2023-01-28T02:07:18.393Z,97154.13
2023-01-28T02:08:22.819Z,97156.56
2023-01-28T02:09:32.605Z,97154.13
2023-01-28T02:10:34.505Z,97158.47
2023-01-28T02:11:36.675Z,97160.22
2023-01-28T02:12:41.012Z,97162.78
2023-01-28T02:13:46.772Z,97159.25
2023-01-28T02:14:54.807Z,97166.28
2023-01-28T02:15:58.658Z,97160.34
2023-01-28T02:17:02.068Z,97159.41
2023-01-28T02:18:03.983Z,97163.59
2023-01-28T02:19:06.752Z,97161.84
2023-01-28T02:20:12.915Z,97165.22
2023-01-28T02:21:17.480Z,97165.22
2023-01-28T02:22:38.054Z,97164.41
2023-01-28T02:23:39.855Z,97166.16
2023-01-28T02:24:53.842Z,97165.22
2023-01-28T02:26:22.013Z,97159.00
2023-01-28T02:27:42.376Z,97155.47
2023-01-28T02:28:52.673Z,97157.00
2023-01-28T02:30:03.478Z,97156.72
2023-01-28T02:31:25.789Z,97163.47
2023-01-28T02:32:43.067Z,97163.75
2023-01-28T02:34:06.478Z,97160.38
2023-01-28T02:35:14.827Z,97169.28
2023-01-28T02:36:26.247Z,97165.50
2023-01-28T02:37:31.360Z,97163.88
2023-01-28T02:38:35.708Z,97161.31
2023-01-28T02:39:41.083Z,97162.25
2023-01-28T02:41:02.933Z,97156.31
2023-01-28T02:42:07.247Z,97159.00
2023-01-28T02:43:08.983Z,97156.44
2023-01-28T02:44:10.875Z,97154.81
2023-01-28T02:45:17.085Z,97158.19
2023-01-28T02:46:37.584Z,97154.81
2023-01-28T02:47:57.601Z,97155.63
2023-01-28T02:48:59.600Z,97158.19
2023-01-28T02:50:03.703Z,97159.28
2023-01-28T02:51:10.283Z,97158.44
2023-01-28T02:52:46.182Z,97164.41
2023-01-28T02:53:57.845Z,97167.09
2023-01-28T02:55:11.047Z,97159.97
2023-01-28T02:56:15.545Z,97160.63
2023-01-28T02:57:43.414Z,97167.38
2023-01-28T02:58:48.289Z,97163.03
2023-01-28T02:59:57.459Z,97157.91
2023-01-28T03:01:19.269Z,97162.25
2023-01-28T03:02:21.138Z,97160.63
2023-01-28T03:03:25.983Z,97164.81
2023-01-28T03:04:30.534Z,97165.50
2023-01-28T03:05:50.735Z,97165.50
2023-01-28T03:06:55.255Z,97170.91
2023-01-28T03:07:57.268Z,97163.19
2023-01-28T03:09:20.296Z,97166.56
2023-01-28T03:10:24.349Z,97163.34
2023-01-28T03:11:45.927Z,97159.97
2023-01-28T03:13:08.506Z,97162.66
2023-01-28T03:14:29.087Z,97164.53
2023-01-28T03:15:55.190Z,97166.03
2023-01-28T03:17:18.537Z,97168.47
2023-01-28T03:18:51.879Z,97171.03
2023-01-28T03:20:13.181Z,97169.28
2023-01-28T03:21:41.446Z,97174.53
2023-01-28T03:23:07.766Z,97173.72
2023-01-28T03:24:31.827Z,97179.53
2023-01-28T03:25:53.436Z,97178.47
2023-01-28T03:27:17.031Z,97181.28
2023-01-28T03:28:39.789Z,97178.97
2023-01-28T03:30:00.897Z,97188.06
2023-01-28T03:31:24.004Z,97189.53
2023-01-28T03:32:44.513Z,97181.72
2023-01-28T03:34:05.113Z,97184.97
2023-01-28T03:35:27.737Z,97187.38
2023-01-28T03:36:48.897Z,97187.38
2023-01-28T03:37:50.918Z,97191.69
2023-01-28T03:38:52.808Z,97179.53
2023-01-28T03:39:58.217Z,97181.97
2023-01-28T03:41:03.036Z,97182.66
2023-01-28T03:42:12.188Z,97188.88
2023-01-28T03:43:14.101Z,97189.13
2023-01-28T03:44:34.620Z,97187.53
2023-01-28T03:45:37.562Z,97188.22
2023-01-28T03:46:40.347Z,97187.38
2023-01-28T03:47:42.190Z,97195.91
2023-01-28T03:48:44.677Z,97184.00
2023-01-28T03:49:50.839Z,97187.25
2023-01-28T03:50:53.049Z,97190.63
2023-01-28T03:51:54.959Z,97191.44
2023-01-28T03:53:16.436Z,97179.53
2023-01-28T03:54:18.905Z,97178.75
2023-01-28T03:55:20.904Z,97182.09
2023-01-28T03:56:24.692Z,97189.00
2023-01-28T03:57:27.473Z,97178.75
2023-01-28T03:58:53.222Z,97183.19
2023-01-28T03:59:55.301Z,97190.34
2023-01-28T04:00:57.151Z,97187.09
2023-01-28T04:01:59.148Z,97192.78
2023-01-28T04:03:01.381Z,97190.34
2023-01-28T04:04:03.384Z,97189.53
2023-01-28T04:05:07.200Z,97187.91
2023-01-28T04:06:09.993Z,97190.22
2023-01-28T04:07:14.456Z,97181.03
2023-01-28T04:08:16.396Z,97188.75
2023-01-28T04:09:18.339Z,97189.66
2023-01-28T04:10:20.221Z,97186.41
2023-01-28T04:11:25.399Z,97187.34
2023-01-28T04:12:27.181Z,97189.78
2023-01-28T04:13:29.047Z,97192.22
2023-01-28T04:14:30.873Z,97188.75
2023-01-28T04:15:32.746Z,97188.75
2023-01-28T04:16:34.609Z,97190.75
2023-01-28T04:17:36.971Z,97190.88
2023-01-28T04:18:38.964Z,97196.13
2023-01-28T04:19:40.793Z,97192.47
2023-01-28T04:20:42.566Z,97190.63
2023-01-28T04:21:44.410Z,97194.13
2023-01-28T04:22:46.187Z,97192.34
2023-01-28T04:23:48.038Z,97197.78
2023-01-28T04:24:49.899Z,97194.66
2023-01-28T04:25:52.041Z,97199.78
2023-01-28T04:26:55.544Z,97190.31
2023-01-28T04:27:58.287Z,97191.97
2023-01-28T04:29:00.266Z,97194.38
2023-01-28T04:30:02.075Z,97192.75
2023-01-28T04:31:03.976Z,97192.47
2023-01-28T04:32:05.883Z,97199.38
2023-01-28T04:33:07.738Z,97191.28
2023-01-28T04:34:10.241Z,97199.91
2023-01-28T04:35:12.115Z,97200.88
2023-01-28T04:36:13.981Z,97198.03
2023-01-28T04:37:15.892Z,97201.69
2023-01-28T04:38:17.673Z,97201.69
2023-01-28T04:39:19.549Z,97198.16
2023-01-28T04:40:21.339Z,97202.47
2023-01-28T04:41:23.094Z,97203.84
2023-01-28T04:42:24.944Z,97219.00
2023-01-28T04:43:26.738Z,97207.63
2023-01-28T04:44:28.659Z,97207.38
2023-01-28T04:45:31.264Z,97209.00
2023-01-28T04:46:33.378Z,97211.44
2023-01-28T04:47:35.141Z,97208.75
2023-01-28T04:48:36.986Z,97213.47
2023-01-28T04:49:38.889Z,97217.09
2023-01-28T04:50:41.011Z,97221.56
2023-01-28T04:51:42.923Z,97219.91
2023-01-28T04:52:44.944Z,97220.72
2023-01-28T04:53:46.762Z,97226.56
2023-01-28T04:54:48.497Z,97219.81
2023-01-28T04:55:50.327Z,97224.66
2023-01-28T04:56:52.169Z,97224.22
2023-01-28T04:57:53.971Z,97228.13
2023-01-28T04:58:55.937Z,97223.94
2023-01-28T04:59:57.793Z,97226.38
2023-01-28T05:01:00.380Z,97231.88
2023-01-28T05:02:02.397Z,97229.47
2023-01-28T05:03:04.216Z,97235.28
2023-01-28T05:04:06.265Z,97231.53
2023-01-28T05:05:09.345Z,97232.19
2023-01-28T05:06:11.212Z,97233.81
2023-01-28T05:07:13.143Z,97237.19
2023-01-28T05:08:14.953Z,97235.97
2023-01-28T05:09:17.323Z,97229.34
2023-01-28T05:10:19.925Z,97242.31
2023-01-28T05:11:21.915Z,97235.28
2023-01-28T05:12:23.712Z,97236.81
2023-01-28T05:13:25.616Z,97237.63
2023-01-28T05:14:27.416Z,97240.44
2023-01-28T05:15:29.177Z,97243.16
2023-01-28T05:16:32.461Z,97244.88
2023-01-28T05:17:34.324Z,97238.94
2023-01-28T05:18:36.098Z,97241.25
2023-01-28T05:19:37.883Z,97246.25
2023-01-28T05:20:39.783Z,97243.69
2023-01-28T05:21:41.620Z,97244.63
2023-01-28T05:22:43.557Z,97243.28
2023-01-28T05:23:45.298Z,97246.25
2023-01-28T05:24:47.095Z,97250.53
2023-01-28T05:25:49.174Z,97249.84
2023-01-28T05:26:51.050Z,97248.25
2023-01-28T05:27:52.817Z,97247.69
2023-01-28T05:28:54.669Z,97249.69
2023-01-28T05:29:56.655Z,97255.34
2023-01-28T05:31:03.203Z,97253.97
2023-01-28T05:32:05.249Z,97248.44
2023-01-28T05:33:07.021Z,97249.84
2023-01-28T05:34:09.012Z,97252.53
2023-01-28T05:35:10.846Z,97256.81
2023-01-28T05:36:12.638Z,97254.41
2023-01-28T05:37:14.630Z,97249.28
2023-01-28T05:38:16.787Z,97248.31
2023-01-28T05:39:18.499Z,97248.31
2023-01-28T05:40:20.444Z,97249.13
2023-01-28T05:41:22.334Z,97243.31
2023-01-28T05:42:24.140Z,97251.91
2023-01-28T05:43:25.955Z,97256.94
2023-01-28T05:44:27.844Z,97250.16
2023-01-28T05:45:29.740Z,97246.09
2023-01-28T05:46:31.688Z,97247.75
2023-01-28T05:47:34.529Z,97243.66
2023-01-28T05:48:36.371Z,97250.81
2023-01-28T05:49:38.153Z,97250.94
2023-01-28T05:50:39.978Z,97256.47
2023-01-28T05:51:41.871Z,97259.03
2023-01-28T05:52:44.103Z,97259.03
2023-01-28T05:53:45.846Z,97258.75
2023-01-28T05:54:47.697Z,97256.06
2023-01-28T05:55:53.753Z,97257.00
2023-01-28T05:56:55.550Z,97267.13
2023-01-28T05:57:57.488Z,97260.94
2023-01-28T05:58:59.318Z,97266.06
2023-01-28T06:00:01.108Z,97269.31
2023-01-28T06:01:02.859Z,97277.00
2023-01-28T06:02:04.710Z,97266.63
2023-01-28T06:03:06.602Z,97276.78
2023-01-28T06:04:08.481Z,97273.13
2023-01-28T06:05:10.450Z,97269.88
2023-01-28T06:06:12.244Z,97270.84
2023-01-28T06:07:14.125Z,97272.31
2023-01-28T06:08:16.022Z,97270.31
2023-01-28T06:09:17.898Z,97269.63
2023-01-28T06:10:19.719Z,97271.63
2023-01-28T06:11:21.510Z,97271.88
2023-01-28T06:12:23.257Z,97271.75
2023-01-28T06:13:25.194Z,97276.09
2023-01-28T06:14:26.978Z,97274.19
2023-01-28T06:15:29.002Z,97280.81
2023-01-28T06:16:30.921Z,97278.53
2023-01-28T06:17:32.723Z,97279.34
2023-01-28T06:18:34.775Z,97279.47
2023-01-28T06:19:36.503Z,97281.34
2023-01-28T06:20:38.253Z,97287.44
2023-01-28T06:21:40.106Z,97286.59
2023-01-28T06:22:41.908Z,97287.53
2023-01-28T06:23:43.804Z,97287.44
2023-01-28T06:24:45.605Z,97287.44
2023-01-28T06:25:47.418Z,97293.94
2023-01-28T06:26:49.184Z,97297.41
2023-01-28T06:27:50.979Z,97290.91
2023-01-28T06:28:52.848Z,97295.34
2023-01-28T06:29:54.762Z,97293.59
2023-01-28T06:30:56.575Z,97300.25
2023-01-28T06:31:58.418Z,97297.69
2023-01-28T06:33:00.243Z,97299.28
2023-01-28T06:34:02.211Z,97304.31
2023-01-28T06:35:04.504Z,97309.06
2023-01-28T06:36:09.243Z,97314.19
2023-01-28T06:37:14.348Z,97310.00
2023-01-28T06:38:16.346Z,97314.19
2023-01-28T06:39:18.270Z,97310.69
2023-01-28T06:40:20.749Z,97311.19
2023-01-28T06:41:22.695Z,97320.91
2023-01-28T06:42:24.487Z,97316.84
2023-01-28T06:43:30.942Z,97323.00
2023-01-28T06:44:32.804Z,97322.19
2023-01-28T06:45:34.625Z,97314.31
2023-01-28T06:46:36.477Z,97318.66
2023-01-28T06:47:41.168Z,97318.88
2023-01-28T06:48:42.992Z,97323.66
2023-01-28T06:49:44.859Z,97326.22
2023-01-28T06:50:49.972Z,97327.03
2023-01-28T06:51:51.806Z,97335.41
2023-01-28T06:52:53.610Z,97328.28
2023-01-28T06:53:55.418Z,97329.91
2023-01-28T06:54:57.188Z,97331.53
2023-01-28T06:55:59.120Z,97338.16
2023-01-28T06:57:00.924Z,97336.41
2023-01-28T06:58:02.686Z,97335.72
2023-01-28T06:59:04.588Z,97341.22
2023-01-28T07:00:08.701Z,97341.34
2023-01-28T07:01:10.608Z,97342.31
2023-01-28T07:02:12.476Z,97349.03
2023-01-28T07:03:14.388Z,97351.38
2023-01-28T07:04:16.259Z,97353.00
2023-01-28T07:05:18.387Z,97351.59
2023-01-28T07:06:20.297Z,97341.47
2023-01-28T07:07:22.077Z,97345.56
2023-01-28T07:08:23.908Z,97345.97
2023-01-28T07:09:25.774Z,97348.66
2023-01-28T07:10:27.559Z,97351.38
2023-01-28T07:11:29.441Z,97349.84
2023-01-28T07:12:31.237Z,97349.03
2023-01-28T07:13:33.114Z,97352.19
2023-01-28T07:14:34.972Z,97351.09
2023-01-28T07:15:37.127Z,97347.84
2023-01-28T07:16:39.122Z,97349.84
2023-01-28T07:17:44.067Z,97355.13
2023-01-28T07:18:46.030Z,97350.41
2023-01-28T07:19:47.839Z,97351.78
2023-01-28T07:20:49.721Z,97345.16
2023-01-28T07:21:51.533Z,97349.63
2023-01-28T07:22:53.406Z,97347.84
2023-01-28T07:23:56.278Z,97354.63
2023-01-28T07:24:59.237Z,97349.22
2023-01-28T07:26:01.947Z,97360.06
2023-01-28T07:27:05.041Z,97355.75
2023-01-28T07:28:07.100Z,97345.34
2023-01-28T07:29:09.350Z,97353.75
2023-01-28T07:30:11.593Z,97360.75
2023-01-28T07:31:13.939Z,97354.56
2023-01-28T07:32:15.864Z,97356.72
2023-01-28T07:33:18.125Z,97359.28
2023-01-28T07:34:20.001Z,97366.06
2023-01-28T07:35:21.949Z,97353.94
2023-01-28T07:36:23.803Z,97365.69
2023-01-28T07:37:25.749Z,97354.72
2023-01-28T07:38:27.539Z,97361.50
2023-01-28T07:39:29.305Z,97365.00
2023-01-28T07:40:31.095Z,97359.75
2023-01-28T07:41:32.899Z,97361.50
2023-01-28T07:42:34.732Z,97355.53
2023-01-28T07:44:37.763Z,97360.44
2023-01-28T07:45:40.814Z,97361.25
2023-01-28T07:46:42.845Z,97360.31
2023-01-28T07:47:45.069Z,97356.69
2023-01-28T07:48:47.105Z,97360.03
2023-01-28T07:49:49.076Z,97367.75
2023-01-28T07:50:52.183Z,97374.75
2023-01-28T07:51:54.200Z,97377.22
2023-01-28T07:52:57.532Z,97372.88
2023-01-28T07:53:59.567Z,97377.09
2023-01-28T07:55:01.662Z,97376.13
2023-01-28T07:56:05.459Z,97382.66
2023-01-28T07:57:10.267Z,97379.38
2023-01-28T07:58:12.900Z,97376.13
2023-01-28T07:59:14.973Z,97383.16
2023-01-28T08:00:17.706Z,97384.09
2023-01-28T08:01:20.017Z,97380.84
2023-01-28T08:02:22.040Z,97376.41
2023-01-28T08:03:24.181Z,97383.41
2023-01-28T08:04:26.249Z,97381.78
2023-01-28T08:05:45.494Z,97378.53
2023-01-28T08:06:47.496Z,97388.53
2023-01-28T08:07:49.788Z,97391.13
2023-01-28T08:08:51.823Z,97389.22
2023-01-28T08:09:53.799Z,97386.41
2023-01-28T08:10:55.949Z,97396.44
2023-01-28T08:11:57.925Z,97388.47
2023-01-28T08:12:59.976Z,97397.81
2023-01-28T08:14:01.986Z,97386.34
2023-01-28T08:15:05.760Z,97393.25
2023-01-28T08:16:08.496Z,97394.28
2023-01-28T08:17:10.432Z,97392.69
2023-01-28T08:18:14.647Z,97387.53
2023-01-28T08:19:19.006Z,97395.94
2023-01-28T08:20:20.989Z,97401.75
2023-01-28T08:21:23.172Z,97395.94
2023-01-28T08:22:28.874Z,97398.72
2023-01-28T08:23:34.685Z,97394.44
2023-01-28T08:24:36.679Z,97393.47
2023-01-28T08:25:39.529Z,97400.09
2023-01-28T08:26:41.476Z,97389.84
2023-01-28T08:27:43.420Z,97390.78
2023-01-28T08:28:45.356Z,97397.53
2023-01-28T08:29:47.372Z,97392.56
2023-01-28T08:30:49.627Z,97395.34
2023-01-28T08:31:51.593Z,97397.81
2023-01-28T08:32:58.269Z,97396.16
2023-01-28T08:34:02.229Z,97390.78
2023-01-28T08:35:05.634Z,97392.28
2023-01-28T08:36:08.058Z,97394.72
2023-01-28T08:37:09.892Z,97397.31
2023-01-28T08:38:15.645Z,97394.06
2023-01-28T08:39:17.760Z,97394.84
2023-01-28T08:40:20.184Z,97401.47
2023-01-28T08:41:23.065Z,97399.47
2023-01-28T08:42:25.112Z,97401.38
2023-01-28T08:43:27.263Z,97398.78
2023-01-28T08:44:29.288Z,97405.41
2023-01-28T08:45:32.280Z,97404.50
2023-01-28T08:46:34.322Z,97403.00
2023-01-28T08:47:36.336Z,97405.41
2023-01-28T08:48:38.800Z,97412.19
2023-01-28T08:49:40.751Z,97410.56
2023-01-28T08:50:43.601Z,97407.06
2023-01-28T08:51:45.563Z,97408.94
2023-01-28T08:52:50.931Z,97407.56
2023-01-28T08:53:53.176Z,97404.88
2023-01-28T08:54:55.203Z,97405.56
2023-01-28T08:55:57.495Z,97404.63
2023-01-28T08:56:59.464Z,97408.69
2023-01-28T08:58:06.053Z,97411.00
2023-01-28T08:59:08.077Z,97405.47
2023-01-28T09:00:13.773Z,97412.81
2023-01-28T09:01:15.897Z,97409.06
2023-01-28T09:02:30.850Z,97401.91
2023-01-28T09:03:34.378Z,97408.41
2023-01-28T09:04:36.122Z,97404.09
2023-01-28T09:05:39.093Z,97411.25
2023-01-28T09:06:41.063Z,97411.94
2023-01-28T09:07:43.144Z,97405.84
2023-01-28T09:08:45.141Z,97401.25
2023-01-28T09:09:47.130Z,97411.13
2023-01-28T09:10:49.131Z,97400.84
2023-01-28T09:11:51.109Z,97409.34
2023-01-28T09:12:53.135Z,97406.91
2023-01-28T09:13:55.303Z,97408.66
2023-01-28T09:14:57.427Z,97404.72
2023-01-28T09:15:59.531Z,97409.69
2023-01-28T09:17:01.634Z,97411.19
2023-01-28T09:18:04.585Z,97418.88
2023-01-28T09:19:06.593Z,97413.06
2023-01-28T09:20:09.324Z,97411.19
2023-01-28T09:21:11.357Z,97413.63
2023-01-28T09:22:13.410Z,97416.19
2023-01-28T09:23:15.507Z,97414.44
2023-01-28T09:24:18.653Z,97414.72
2023-01-28T09:25:20.731Z,97423.09
2023-01-28T09:26:22.759Z,97421.47
2023-01-28T09:27:24.737Z,97422.84
2023-01-28T09:28:26.828Z,97419.47
2023-01-28T09:29:29.001Z,97420.13
2023-01-28T09:30:31.625Z,97423.50
2023-01-28T09:31:33.634Z,97426.09
2023-01-28T09:32:35.686Z,97425.84
2023-01-28T09:33:39.665Z,97417.19
2023-01-28T09:34:41.772Z,97418.00
2023-01-28T09:35:43.706Z,97420.19
2023-01-28T09:36:45.694Z,97418.31
2023-01-28T09:37:48.589Z,97420.72
2023-01-28T09:38:50.628Z,97421.19
2023-01-28T09:39:52.687Z,97418.47
2023-01-28T09:40:56.422Z,97428.50
2023-01-28T09:42:22.596Z,97424.31
2023-01-28T09:43:42.955Z,97421.28
2023-01-28T09:45:02.283Z,97421.56
2023-01-28T09:46:07.533Z,97426.03
2023-01-28T09:47:20.614Z,97425.19
2023-01-28T09:48:26.586Z,97424.81
2023-01-28T09:49:37.964Z,97429.41
2023-01-28T09:50:44.532Z,97433.97
2023-01-28T09:51:52.634Z,97426.03
2023-01-28T09:53:00.154Z,97424.66
2023-01-28T09:54:19.849Z,97420.31
2023-01-28T09:55:40.588Z,97428.41
2023-01-28T09:56:47.528Z,97419.63
2023-01-28T09:57:54.023Z,97422.09
2023-01-28T09:58:57.456Z,97426.94
2023-01-28T09:59:59.665Z,97424.13
2023-01-28T10:01:13.796Z,97421.56
2023-01-28T10:02:55.217Z,97423.47
2023-01-28T10:04:25.045Z,97418.78
2023-01-28T10:06:05.787Z,97420.81
2023-01-28T10:07:16.382Z,97423.69
2023-01-28T10:08:18.383Z,97429.50
2023-01-28T10:09:35.216Z,97419.91
2023-01-28T10:11:11.441Z,97423.31
2023-01-28T10:12:38.613Z,97422.34
2023-01-28T10:13:55.692Z,97418.84
2023-01-28T10:15:28.124Z,97416.13
2023-01-28T10:16:38.819Z,97413.44
2023-01-28T10:17:51.047Z,97415.78
2023-01-28T10:19:01.594Z,97413.31
2023-01-28T10:20:12.952Z,97413.56
2023-01-28T10:21:39.706Z,97410.06
2023-01-28T10:22:51.342Z,97412.50
2023-01-28T10:24:02.060Z,97413.31
2023-01-28T10:25:14.500Z,97406.00
2023-01-28T10:26:25.065Z,97410.19
2023-01-28T10:27:31.013Z,97409.25
2023-01-28T10:28:35.279Z,97406.94
2023-01-28T10:29:40.150Z,97406.81
2023-01-28T10:30:45.323Z,97406.53
2023-01-28T10:31:55.860Z,97411.69
2023-01-28T10:33:20.836Z,97411.69
2023-01-28T10:34:23.626Z,97413.56
2023-01-28T10:35:26.769Z,97417.09
2023-01-28T10:36:29.912Z,97415.44
2023-01-28T10:37:35.105Z,97416.41
2023-01-28T10:38:37.051Z,97416.53
2023-01-28T10:39:39.105Z,97411.41
2023-01-28T10:40:48.322Z,97415.16
2023-01-28T10:41:57.895Z,97412.19
2023-01-28T10:43:00.426Z,97402.59
2023-01-28T10:44:02.544Z,97408.69
2023-01-28T10:45:10.227Z,97403.56
2023-01-28T10:46:22.722Z,97401.00
2023-01-28T10:47:32.115Z,97402.47
2023-01-28T10:48:38.125Z,97399.91
2023-01-28T10:49:45.985Z,97401.41
2023-01-28T10:51:02.178Z,97402.22
2023-01-28T10:52:12.776Z,97395.56
2023-01-28T10:53:14.801Z,97407.50
2023-01-28T10:54:29.476Z,97394.38
2023-01-28T10:55:54.578Z,97392.63
2023-01-28T10:57:01.601Z,97394.66
2023-01-28T10:58:05.496Z,97398.97
2023-01-28T10:59:23.703Z,97395.72
2023-01-28T11:00:35.992Z,97395.56
2023-01-28T11:01:46.394Z,97397.22
2023-01-28T11:02:49.707Z,97393.69
2023-01-28T11:03:57.155Z,97397.91
2023-01-28T11:05:18.307Z,97397.63
2023-01-28T11:06:30.100Z,97401.16
2023-01-28T11:07:32.206Z,97396.69
2023-01-28T11:08:45.474Z,97400.06
2023-01-28T11:09:52.258Z,97403.47
2023-01-28T11:10:55.535Z,97395.75
2023-01-28T11:11:58.986Z,97401.03
2023-01-28T11:13:05.006Z,97404.53
2023-01-28T11:14:19.694Z,97401.28
2023-01-28T11:15:21.661Z,97403.59
2023-01-28T11:16:23.747Z,97405.09
2023-01-28T11:17:29.594Z,97396.44
2023-01-28T11:18:36.043Z,97398.19
2023-01-28T11:19:39.584Z,97398.34
2023-01-28T11:20:49.436Z,97393.88
2023-01-28T11:21:54.963Z,97397.50
2023-01-28T11:22:58.111Z,97404.66
2023-01-28T11:24:18.303Z,97399.22
2023-01-28T11:25:33.801Z,97395.84
2023-01-28T11:26:39.973Z,97399.91
2023-01-28T11:27:49.190Z,97404.81
2023-01-28T11:28:52.883Z,97401.00
2023-01-28T11:29:58.367Z,97400.19
2023-01-28T11:31:03.204Z,97399.22
2023-01-28T11:32:05.343Z,97402.59
2023-01-28T11:33:12.995Z,97399.34
2023-01-28T11:34:18.180Z,97398.66
2023-01-28T11:35:30.778Z,97392.59
2023-01-28T11:36:35.310Z,97400.88
2023-01-28T11:37:38.279Z,97394.66
2023-01-28T11:38:50.031Z,97403.03
2023-01-28T11:40:21.804Z,97399.38
2023-01-28T11:41:37.131Z,97404.97
2023-01-28T11:42:39.067Z,97401.19
2023-01-28T11:43:41.244Z,97399.16
2023-01-28T11:44:44.322Z,97389.81
2023-01-28T11:46:20.472Z,97401.06
2023-01-28T11:48:05.587Z,97393.88
2023-01-28T11:49:42.781Z,97400.22
2023-01-28T11:51:02.744Z,97397.41
2023-01-28T11:52:38.763Z,97392.25
2023-01-28T11:54:16.847Z,97394.41
2023-01-28T11:55:28.776Z,97398.19
2023-01-28T11:56:39.386Z,97395.47
2023-01-28T11:57:43.958Z,97394.56
2023-01-28T11:58:46.591Z,97394.56
2023-01-28T12:00:20.877Z,97396.28
2023-01-28T12:01:34.983Z,97395.47
2023-01-28T12:03:15.500Z,97397.13
2023-01-28T12:04:40.624Z,97401.19
2023-01-28T12:05:45.463Z,97398.34
2023-01-28T12:07:01.239Z,97402.50
2023-01-28T12:08:33.951Z,97394.25
2023-01-28T12:09:43.994Z,97406.28
2023-01-28T12:11:00.731Z,97399.50
2023-01-28T12:12:21.288Z,97397.63
2023-01-28T12:14:00.648Z,97395.06
2023-01-28T12:15:26.977Z,97392.47
2023-01-28T12:16:43.310Z,97399.25
2023-01-28T12:18:03.021Z,97407.91
2023-01-28T12:19:17.216Z,97397.63
2023-01-28T12:20:19.557Z,97402.75
2023-01-28T12:21:39.988Z,97401.72
2023-01-28T12:22:58.414Z,97405.88
2023-01-28T12:24:00.360Z,97399.25
2023-01-28T12:25:21.543Z,97406.03
2023-01-28T12:26:53.014Z,97406.97
2023-01-28T12:28:16.096Z,97396.69
2023-01-28T12:29:47.752Z,97399.25
2023-01-28T12:31:01.817Z,97397.38
2023-01-28T12:32:18.623Z,97392.34
2023-01-28T12:33:35.125Z,97395.31
2023-01-28T12:34:49.262Z,97409.09
2023-01-28T12:35:58.755Z,97405.16
2023-01-28T12:37:22.088Z,97402.88
2023-01-28T12:38:38.003Z,97399.50
2023-01-28T12:39:43.745Z,97402.75
2023-01-28T12:40:58.731Z,97400.88
2023-01-28T12:42:06.636Z,97402.34
2023-01-28T12:43:11.464Z,97402.34
2023-01-28T12:44:51.944Z,97408.31
2023-01-28T12:46:12.466Z,97402.47
2023-01-28T12:47:20.002Z,97401.00
2023-01-28T12:48:29.998Z,97405.44
2023-01-28T12:49:41.419Z,97405.44
2023-01-28T12:50:46.904Z,97408.16
2023-01-28T12:51:48.824Z,97411.53
2023-01-28T12:52:59.914Z,97413.16
2023-01-28T12:54:05.709Z,97417.63
2023-01-28T12:55:39.849Z,97405.84
2023-01-28T12:56:45.622Z,97405.00
2023-01-28T12:57:49.057Z,97405.97
2023-01-28T12:59:16.903Z,97414.38